Terminal Aerodrome Forecast
Issued by NWS

Home | Current Version | Previous Version | Text Only | Print | Product List | Glossary On
Versions: 1 2 3 4 5 6 7 8 9 10 11 12 13 14 15 16 17 18 19 20 21
000
FTUS42 KTAE 280538
TAFECP
TAF
KECP 280538Z 2806/2906 15003KT P6SM BKN007
      TEMPO 2806/2810 2SM BR SCT007
     FM281000 VRB02KT 1/2SM FG BKN001
     FM281300 VRB02KT 3SM BR SCT001
     FM281500 25009KT P6SM SCT050 BKN250
     FM290000 23004KT P6SM SCT250=

USA.gov is the U.S. government's official web portal to all federal, state and local government web resources and services.